createdAt,value
2019-03-12T00:00:29.505Z,1002.05
2019-03-12T00:01:29.493Z,1002.01
2019-03-12T00:02:29.499Z,1002.02
2019-03-12T00:03:29.472Z,1002.01
2019-03-12T00:04:29.460Z,1002.04
2019-03-12T00:05:29.459Z,1002.10
2019-03-12T00:06:29.468Z,1002.08
2019-03-12T00:07:29.447Z,1002.10
2019-03-12T00:08:29.449Z,1002.07
2019-03-12T00:09:29.405Z,1002.08
2019-03-12T00:10:29.400Z,1001.97
2019-03-12T00:11:29.383Z,1002.03
2019-03-12T00:12:29.373Z,1001.92
2019-03-12T00:13:29.373Z,1001.99
2019-03-12T00:14:29.368Z,1001.97
2019-03-12T00:15:29.341Z,1001.99
2019-03-12T00:16:29.328Z,1002.04
2019-03-12T00:17:29.318Z,1002.03
2019-03-12T00:18:29.304Z,1002.03
2019-03-12T00:19:29.296Z,1001.96
2019-03-12T00:20:29.306Z,1001.96
2019-03-12T00:21:29.278Z,1001.99
2019-03-12T00:22:29.262Z,1001.93
2019-03-12T00:23:29.252Z,1001.96
2019-03-12T00:24:29.242Z,1001.97
2019-03-12T00:25:29.226Z,1002.03
2019-03-12T00:26:29.245Z,1002.11
2019-03-12T00:27:29.205Z,1002.11
2019-03-12T00:28:29.196Z,1002.09
2019-03-12T00:29:29.202Z,1002.12
2019-03-12T00:30:29.180Z,1002.17
2019-03-12T00:31:29.160Z,1002.18
2019-03-12T00:32:29.167Z,1002.14
2019-03-12T00:33:29.142Z,1002.13
2019-03-12T00:34:29.131Z,1002.11
2019-03-12T00:35:29.116Z,1002.14
2019-03-12T00:36:29.112Z,1002.07
2019-03-12T00:37:29.095Z,1002.10
2019-03-12T00:38:29.100Z,1002.09
2019-03-12T00:39:29.075Z,1002.11
2019-03-12T00:40:29.072Z,1002.06
2019-03-12T00:41:29.053Z,1002.00
2019-03-12T00:42:29.039Z,1002.07
2019-03-12T00:43:29.037Z,1002.00
2019-03-12T00:44:29.040Z,1002.10
2019-03-12T00:45:29.007Z,1002.07
2019-03-12T00:46:28.995Z,1002.00
2019-03-12T00:47:28.986Z,1002.03
2019-03-12T00:48:28.978Z,1002.04
2019-03-12T00:49:28.964Z,1002.00
2019-03-12T00:50:28.971Z,1002.00
2019-03-12T00:51:28.944Z,1002.02
2019-03-12T00:52:28.929Z,1002.00
2019-03-12T00:53:28.926Z,1001.95
2019-03-12T00:54:28.920Z,1001.95
2019-03-12T00:55:28.898Z,1001.96
2019-03-12T00:56:28.902Z,1001.98
2019-03-12T00:57:28.880Z,1001.96
2019-03-12T00:58:28.865Z,1002.04
2019-03-12T00:59:28.858Z,1001.99
2019-03-12T01:00:28.842Z,1001.97
2019-03-12T01:01:28.831Z,1001.95
2019-03-12T01:02:28.836Z,1001.94
2019-03-12T01:03:28.808Z,1001.94
2019-03-12T01:04:28.799Z,1002.00
2019-03-12T01:05:28.786Z,1001.93
2019-03-12T01:06:28.780Z,1001.93
2019-03-12T01:07:28.769Z,1001.93
2019-03-12T01:08:28.770Z,1001.98
2019-03-12T01:09:28.744Z,1001.91
2019-03-12T01:10:28.731Z,1001.93
2019-03-12T01:11:28.719Z,1001.91
2019-03-12T01:12:28.715Z,1001.91
2019-03-12T01:13:28.700Z,1001.88
2019-03-12T01:14:28.704Z,1001.89
2019-03-12T01:15:28.704Z,1001.93
2019-03-12T01:16:28.669Z,1001.86
2019-03-12T01:17:28.654Z,1001.84
2019-03-12T01:18:28.647Z,1001.83
2019-03-12T01:19:28.635Z,1001.77
2019-03-12T01:20:28.651Z,1001.78
2019-03-12T01:21:28.612Z,1001.74
2019-03-12T01:22:28.599Z,1001.76
2019-03-12T01:23:28.591Z,1001.77
2019-03-12T01:24:28.578Z,1001.75
2019-03-12T01:25:28.565Z,1001.76
2019-03-12T01:26:28.571Z,1001.70
2019-03-12T01:27:28.548Z,1001.78
2019-03-12T01:28:28.535Z,1001.78
2019-03-12T01:29:28.522Z,1001.72
2019-03-12T01:30:28.527Z,1001.72
2019-03-12T01:31:28.499Z,1001.69
2019-03-12T01:32:28.507Z,1001.69
2019-03-12T01:33:28.477Z,1001.66
2019-03-12T01:34:28.467Z,1001.67
2019-03-12T01:35:28.455Z,1001.65
2019-03-12T01:36:28.449Z,1001.64
2019-03-12T01:37:28.435Z,1001.63
2019-03-12T01:38:28.442Z,1001.60
2019-03-12T01:39:28.411Z,1001.58
2019-03-12T01:40:28.418Z,1001.58
2019-03-12T01:41:28.391Z,1001.59
2019-03-12T01:42:28.380Z,1001.66
2019-03-12T01:43:28.372Z,1001.63
2019-03-12T01:44:28.380Z,1001.63
2019-03-12T01:45:28.347Z,1001.62
2019-03-12T01:46:28.335Z,1001.61
2019-03-12T01:47:28.327Z,1001.62
2019-03-12T01:48:28.312Z,1001.62
2019-03-12T01:49:28.304Z,1001.57
2019-03-12T01:50:28.321Z,1001.56
2019-03-12T01:51:31.030Z,1001.53
2019-03-12T01:52:28.271Z,1001.51
2019-03-12T01:53:28.257Z,1001.58
2019-03-12T01:54:28.246Z,1001.71
2019-03-12T01:55:28.238Z,1001.68
2019-03-12T01:56:28.247Z,1001.67
2019-03-12T01:57:28.276Z,1001.66
2019-03-12T01:58:28.206Z,1001.64
2019-03-12T01:59:28.195Z,1001.64
2019-03-12T02:00:28.183Z,1001.66
2019-03-12T02:01:28.174Z,1001.72
2019-03-12T02:02:28.176Z,1001.73
2019-03-12T02:03:28.169Z,1001.67
2019-03-12T02:04:28.140Z,1001.65
2019-03-12T02:05:28.130Z,1001.61
2019-03-12T02:06:28.117Z,1001.62
2019-03-12T02:07:28.103Z,1001.58
2019-03-12T02:08:28.109Z,1001.64
2019-03-12T02:09:28.082Z,1001.61
2019-03-12T02:10:28.070Z,1001.63
2019-03-12T02:11:28.092Z,1001.53
2019-03-12T02:12:28.047Z,1001.60
2019-03-12T02:13:28.038Z,1001.58
2019-03-12T02:14:28.048Z,1001.54
2019-03-12T02:15:28.015Z,1001.47
2019-03-12T02:16:28.003Z,1001.49
2019-03-12T02:17:27.993Z,1001.50
2019-03-12T02:18:27.982Z,1001.50
2019-03-12T02:19:27.971Z,1001.45
2019-03-12T02:20:27.976Z,1001.51
2019-03-12T02:21:27.957Z,1001.46
2019-03-12T02:22:27.959Z,1001.40
2019-03-12T02:23:29.155Z,1001.36
2019-03-12T02:24:27.917Z,1001.43
2019-03-12T02:25:27.907Z,1001.42
2019-03-12T02:26:27.910Z,1001.38
2019-03-12T02:27:27.881Z,1001.34
2019-03-12T02:28:27.874Z,1001.33
2019-03-12T02:29:27.946Z,1001.34
2019-03-12T02:30:27.856Z,1001.37
2019-03-12T02:31:27.838Z,1001.29
2019-03-12T02:32:27.842Z,1001.36
2019-03-12T02:33:27.818Z,1001.30
2019-03-12T02:34:27.806Z,1001.31
2019-03-12T02:35:27.800Z,1001.30
2019-03-12T02:36:27.788Z,1001.31
2019-03-12T02:37:27.777Z,1001.28
2019-03-12T02:38:27.774Z,1001.31
2019-03-12T02:39:27.749Z,1001.27
2019-03-12T02:40:27.739Z,1001.27
2019-03-12T02:41:27.730Z,1001.27
2019-03-12T02:42:27.720Z,1001.31
2019-03-12T02:43:27.706Z,1001.29
2019-03-12T02:44:27.716Z,1001.30
2019-03-12T02:45:27.707Z,1001.26
2019-03-12T02:46:27.686Z,1001.25
2019-03-12T02:47:27.665Z,1001.22
2019-03-12T02:48:27.678Z,1001.20
2019-03-12T02:49:27.642Z,1001.20
2019-03-12T02:50:27.647Z,1001.19
2019-03-12T02:51:27.668Z,1001.18
2019-03-12T02:52:27.607Z,1001.19
2019-03-12T02:53:27.597Z,1001.23
2019-03-12T02:54:27.586Z,1001.22
2019-03-12T02:55:27.579Z,1001.26
2019-03-12T02:56:27.589Z,1001.17
2019-03-12T02:57:27.555Z,1001.18
2019-03-12T02:58:27.542Z,1001.20
2019-03-12T02:59:27.531Z,1001.09
2019-03-12T03:00:27.522Z,1001.11
2019-03-12T03:01:27.508Z,1001.09
2019-03-12T03:02:27.513Z,1001.05
2019-03-12T03:03:27.483Z,1001.03
2019-03-12T03:04:27.484Z,1001.02
2019-03-12T03:05:27.466Z,1001.06
2019-03-12T03:06:27.448Z,1001.03
2019-03-12T03:07:27.439Z,1001.05
2019-03-12T03:08:27.443Z,1000.99
2019-03-12T03:09:27.419Z,1001.08
2019-03-12T03:10:27.421Z,1001.06
2019-03-12T03:11:27.411Z,1001.02
2019-03-12T03:12:27.382Z,1000.97
2019-03-12T03:13:27.372Z,1001.02
2019-03-12T03:14:27.387Z,1001.01
2019-03-12T03:15:27.352Z,1001.05
2019-03-12T03:16:27.340Z,1001.08
2019-03-12T03:17:27.328Z,1001.12
2019-03-12T03:18:27.319Z,1001.10
2019-03-12T03:19:27.303Z,1001.13
2019-03-12T03:20:27.309Z,1001.17
2019-03-12T03:21:27.282Z,1001.13
2019-03-12T03:22:27.276Z,1001.15
2019-03-12T03:23:27.261Z,1001.12
2019-03-12T03:24:27.261Z,1001.11
2019-03-12T03:25:27.237Z,1001.10
2019-03-12T03:26:27.241Z,1001.06
2019-03-12T03:27:29.294Z,1001.06
2019-03-12T03:28:27.207Z,1001.10
2019-03-12T03:29:27.196Z,1001.08
2019-03-12T03:30:27.546Z,1001.07
2019-03-12T03:31:27.188Z,1001.10
2019-03-12T03:32:27.188Z,1001.10
2019-03-12T03:33:27.153Z,1001.13
2019-03-12T03:34:28.840Z,1001.09
2019-03-12T03:35:27.127Z,1001.09
2019-03-12T03:36:27.120Z,1001.03
2019-03-12T03:37:27.106Z,1000.98
2019-03-12T03:38:27.115Z,1001.00
2019-03-12T03:39:27.087Z,1001.01
2019-03-12T03:40:27.073Z,1001.09
2019-03-12T03:41:27.062Z,1001.04
2019-03-12T03:42:27.051Z,1001.03
2019-03-12T03:43:27.037Z,1001.08
2019-03-12T03:44:27.043Z,1000.99
2019-03-12T03:45:27.020Z,1001.06
2019-03-12T03:46:27.006Z,1001.11
2019-03-12T03:47:26.998Z,1001.05
2019-03-12T03:48:26.990Z,1001.00
2019-03-12T03:49:26.971Z,1001.07
2019-03-12T03:50:26.975Z,1001.03
2019-03-12T03:51:26.952Z,1001.01
2019-03-12T03:52:26.939Z,1001.01
2019-03-12T03:53:26.930Z,1001.03
2019-03-12T03:54:26.921Z,1001.05
2019-03-12T03:55:26.909Z,1001.04
2019-03-12T03:56:26.911Z,1001.01
2019-03-12T03:57:26.890Z,1000.95
2019-03-12T03:58:26.871Z,1000.96
2019-03-12T03:59:26.860Z,1000.96
2019-03-12T04:00:26.851Z,1000.96
2019-03-12T04:01:26.850Z,1000.93
2019-03-12T04:02:26.853Z,1000.97
2019-03-12T04:03:26.824Z,1000.95
2019-03-12T04:04:26.807Z,1000.94
2019-03-12T04:05:26.794Z,1000.94
2019-03-12T04:06:26.785Z,1000.94
2019-03-12T04:07:26.773Z,1000.94
2019-03-12T04:08:26.806Z,1000.92
2019-03-12T04:09:26.755Z,1000.89
2019-03-12T04:10:26.751Z,1000.86
2019-03-12T04:11:26.732Z,1000.87
2019-03-12T04:12:26.716Z,1000.80
2019-03-12T04:13:26.722Z,1000.76
2019-03-12T04:14:26.711Z,1000.77
2019-03-12T04:15:26.698Z,1000.75
2019-03-12T04:16:26.673Z,1000.75
2019-03-12T04:17:26.662Z,1000.74
2019-03-12T04:18:26.650Z,1000.63
2019-03-12T04:19:26.660Z,1000.71
2019-03-12T04:20:26.644Z,1000.69
2019-03-12T04:21:26.616Z,1000.69
2019-03-12T04:22:26.616Z,1000.63
2019-03-12T04:23:26.597Z,1000.60
2019-03-12T04:24:26.603Z,1000.55
2019-03-12T04:25:26.578Z,1000.58
2019-03-12T04:26:26.586Z,1000.58
2019-03-12T04:27:26.557Z,1000.55
2019-03-12T04:28:26.537Z,1000.50
2019-03-12T04:29:26.526Z,1000.52
2019-03-12T04:30:26.521Z,1000.47
2019-03-12T04:31:26.505Z,1000.47
2019-03-12T04:32:26.510Z,1000.47
2019-03-12T04:33:26.485Z,1000.47
2019-03-12T04:34:26.470Z,1000.41
2019-03-12T04:35:26.461Z,1000.34
2019-03-12T04:36:26.454Z,1000.38
2019-03-12T04:37:26.435Z,1000.32
2019-03-12T04:38:26.444Z,1000.37
2019-03-12T04:39:26.419Z,1000.31
2019-03-12T04:40:26.410Z,1000.34
2019-03-12T04:41:26.392Z,1000.36
2019-03-12T04:42:26.385Z,1000.34
2019-03-12T04:43:26.381Z,1000.36
2019-03-12T04:44:26.375Z,1000.37
2019-03-12T04:45:26.351Z,1000.32
2019-03-12T04:46:26.335Z,1000.26
2019-03-12T04:47:26.328Z,1000.22
2019-03-12T04:48:26.317Z,1000.26
2019-03-12T04:49:26.312Z,1000.22
2019-03-12T04:50:26.315Z,1000.20
2019-03-12T04:51:26.380Z,1000.24
2019-03-12T04:52:26.270Z,1000.25
2019-03-12T04:53:26.259Z,1000.21
2019-03-12T04:54:26.250Z,1000.21
2019-03-12T04:55:26.238Z,1000.18
2019-03-12T04:56:26.243Z,1000.22
2019-03-12T04:57:26.218Z,1000.24
2019-03-12T04:58:26.206Z,1000.20
2019-03-12T04:59:26.196Z,1000.20
2019-03-12T05:00:26.183Z,1000.17
2019-03-12T05:01:26.183Z,1000.15
2019-03-12T05:02:26.195Z,1000.09
2019-03-12T05:03:26.199Z,1000.14
2019-03-12T05:04:26.179Z,1000.09
2019-03-12T05:05:26.139Z,1000.05
2019-03-12T05:06:26.133Z,1000.06
2019-03-12T05:07:26.107Z,1000.04
2019-03-12T05:08:26.110Z,1000.03
2019-03-12T05:09:26.085Z,1000.04
2019-03-12T05:10:26.071Z,1000.02
2019-03-12T05:11:26.059Z,1000.05
2019-03-12T05:12:26.070Z,999.92
2019-03-12T05:13:26.038Z,1000.03
2019-03-12T05:14:26.054Z,999.95
2019-03-12T05:15:26.016Z,999.99
2019-03-12T05:16:26.005Z,999.98
2019-03-12T05:17:25.992Z,1000.01
2019-03-12T05:18:25.985Z,999.98
2019-03-12T05:19:25.973Z,999.95
2019-03-12T05:20:25.976Z,999.98
2019-03-12T05:21:25.953Z,999.97
2019-03-12T05:22:25.961Z,999.88
2019-03-12T05:23:25.963Z,999.92
2019-03-12T05:24:25.920Z,1000.00
2019-03-12T05:25:25.903Z,999.89
2019-03-12T05:26:25.915Z,999.87
2019-03-12T05:27:25.884Z,999.91
2019-03-12T05:28:25.874Z,999.85
2019-03-12T05:29:25.858Z,999.82
2019-03-12T05:30:25.952Z,999.76
2019-03-12T05:31:25.840Z,999.78
2019-03-12T05:32:25.859Z,999.76
2019-03-12T05:33:25.838Z,999.81
2019-03-12T05:34:25.806Z,999.81
2019-03-12T05:35:25.790Z,999.77
2019-03-12T05:36:25.780Z,999.73
2019-03-12T05:37:25.774Z,999.74
2019-03-12T05:38:25.775Z,999.70
2019-03-12T05:39:25.755Z,999.77
2019-03-12T05:40:25.737Z,999.67
2019-03-12T05:41:25.725Z,999.71
2019-03-12T05:42:25.729Z,999.70
2019-03-12T05:43:25.707Z,999.70
2019-03-12T05:44:25.721Z,999.65
2019-03-12T05:45:25.688Z,999.63
2019-03-12T05:46:25.672Z,999.70
2019-03-12T05:47:25.659Z,999.72
2019-03-12T05:48:25.656Z,999.63
2019-03-12T05:49:25.636Z,999.70
2019-03-12T05:50:25.757Z,999.62
2019-03-12T05:51:25.614Z,999.69
2019-03-12T05:52:25.605Z,999.60
2019-03-12T05:53:25.596Z,999.54
2019-03-12T05:54:25.585Z,999.53
2019-03-12T05:55:25.570Z,999.59
2019-03-12T05:56:25.576Z,999.51
2019-03-12T05:57:25.556Z,999.57
2019-03-12T05:58:25.544Z,999.59
2019-03-12T05:59:25.531Z,999.55
2019-03-12T06:00:25.516Z,999.54
2019-03-12T06:01:25.508Z,999.54
2019-03-12T06:02:25.518Z,999.50
2019-03-12T06:03:25.482Z,999.46
2019-03-12T06:04:25.473Z,999.51
2019-03-12T06:05:25.461Z,999.50
2019-03-12T06:06:25.453Z,999.54
2019-03-12T06:07:25.521Z,999.51
2019-03-12T06:08:25.481Z,999.55
2019-03-12T06:09:30.226Z,999.57
2019-03-12T06:10:26.413Z,999.52
2019-03-12T06:11:25.403Z,999.50
2019-03-12T06:12:25.383Z,999.55
2019-03-12T06:13:25.376Z,999.54
2019-03-12T06:14:25.380Z,999.53
2019-03-12T06:15:25.359Z,999.57
2019-03-12T06:16:25.342Z,999.50
2019-03-12T06:17:25.333Z,999.51
2019-03-12T06:18:25.323Z,999.51
2019-03-12T06:19:25.308Z,999.49
2019-03-12T06:20:25.318Z,999.48
2019-03-12T06:21:25.284Z,999.48
2019-03-12T06:22:25.277Z,999.48
2019-03-12T06:23:25.314Z,999.46
2019-03-12T06:24:25.267Z,999.52
2019-03-12T06:25:25.240Z,999.50
2019-03-12T06:26:25.252Z,999.54
2019-03-12T06:27:25.244Z,999.51
2019-03-12T06:28:25.208Z,999.54
2019-03-12T06:29:25.198Z,999.53
2019-03-12T06:30:26.018Z,999.54
2019-03-12T06:31:25.174Z,999.49
2019-03-12T06:32:25.183Z,999.46
2019-03-12T06:33:25.152Z,999.45
2019-03-12T06:34:25.160Z,999.41
2019-03-12T06:35:25.130Z,999.41
2019-03-12T06:36:25.118Z,999.42
2019-03-12T06:37:25.110Z,999.46
2019-03-12T06:38:25.181Z,999.37
2019-03-12T06:39:25.085Z,999.30
2019-03-12T06:40:25.080Z,999.32
2019-03-12T06:41:25.071Z,999.27
2019-03-12T06:42:25.054Z,999.32
2019-03-12T06:43:25.060Z,999.30
2019-03-12T06:44:25.048Z,999.26
2019-03-12T06:45:25.019Z,999.27
2019-03-12T06:46:25.009Z,999.27
2019-03-12T06:47:25.000Z,999.24
2019-03-12T06:48:24.986Z,999.19
2019-03-12T06:49:24.976Z,999.16
2019-03-12T06:50:24.982Z,999.14
2019-03-12T06:51:24.952Z,999.10
2019-03-12T06:52:24.942Z,999.14
2019-03-12T06:53:24.933Z,999.09
2019-03-12T06:54:24.947Z,999.08
2019-03-12T06:55:24.921Z,999.09
2019-03-12T06:56:24.948Z,999.06
2019-03-12T06:57:24.887Z,999.08
2019-03-12T06:58:24.881Z,999.07
2019-03-12T06:59:24.866Z,999.04
2019-03-12T07:00:24.858Z,999.04
2019-03-12T07:01:24.842Z,999.05
2019-03-12T07:02:24.871Z,999.02
2019-03-12T07:03:24.824Z,998.97
2019-03-12T07:04:24.831Z,998.97
2019-03-12T07:05:24.799Z,998.96
2019-03-12T07:06:24.787Z,998.94
2019-03-12T07:07:24.791Z,998.91
2019-03-12T07:08:24.797Z,999.00
2019-03-12T07:09:24.757Z,998.94
2019-03-12T07:10:24.744Z,998.93
2019-03-12T07:11:24.775Z,998.90
2019-03-12T07:12:24.722Z,998.88
2019-03-12T07:13:24.710Z,998.89
2019-03-12T07:14:24.757Z,998.87
2019-03-12T07:15:24.698Z,999.00
2019-03-12T07:16:24.698Z,998.88
2019-03-12T07:17:24.686Z,998.84
2019-03-12T07:18:24.659Z,998.75
2019-03-12T07:19:24.649Z,998.73
2019-03-12T07:20:24.661Z,998.69
2019-03-12T07:21:24.631Z,998.64
2019-03-12T07:22:24.617Z,998.54
2019-03-12T07:23:24.604Z,998.52
2019-03-12T07:24:24.600Z,998.53
2019-03-12T07:25:24.608Z,998.49
2019-03-12T07:26:24.589Z,998.46
2019-03-12T07:27:24.587Z,998.46
2019-03-12T07:28:24.581Z,998.39
2019-03-12T07:29:24.547Z,998.44
2019-03-12T07:30:24.539Z,998.42
2019-03-12T07:31:24.726Z,998.40
2019-03-12T07:32:24.525Z,998.42
2019-03-12T07:33:24.498Z,998.42
2019-03-12T07:34:36.136Z,998.43
2019-03-12T07:35:25.487Z,998.38
2019-03-12T07:36:24.468Z,998.39
2019-03-12T07:37:24.460Z,998.39
2019-03-12T07:38:24.471Z,998.38
2019-03-12T07:39:24.438Z,998.37
2019-03-12T07:40:24.437Z,998.38
2019-03-12T07:41:31.902Z,998.37
2019-03-12T07:42:25.403Z,998.37
2019-03-12T07:43:24.401Z,998.28
2019-03-12T07:44:24.402Z,998.35
2019-03-12T07:45:24.372Z,998.31
2019-03-12T07:46:24.368Z,998.30
2019-03-12T07:47:35.127Z,998.32
2019-03-12T07:48:25.343Z,998.29
2019-03-12T07:49:24.333Z,998.28
2019-03-12T07:50:24.341Z,998.28
2019-03-12T07:51:24.314Z,998.23
2019-03-12T07:52:24.303Z,998.18
2019-03-12T07:53:24.291Z,998.18
2019-03-12T07:54:24.279Z,998.26
2019-03-12T07:55:24.270Z,998.19
2019-03-12T07:56:24.280Z,998.19
2019-03-12T07:57:24.250Z,998.19
2019-03-12T07:58:35.270Z,998.14
2019-03-12T07:59:25.225Z,998.14
2019-03-12T08:00:24.219Z,998.14
2019-03-12T08:01:25.125Z,998.11
2019-03-12T08:02:24.215Z,998.08
2019-03-12T08:03:24.181Z,998.08
2019-03-12T08:04:24.168Z,998.07
2019-03-12T08:05:24.214Z,998.00
2019-03-12T08:06:24.147Z,997.96
2019-03-12T08:07:24.136Z,997.96
2019-03-12T08:08:24.140Z,997.96
2019-03-12T08:09:24.114Z,997.97
2019-03-12T08:10:24.102Z,997.88
2019-03-12T08:11:24.103Z,997.92
2019-03-12T08:12:24.079Z,997.90
2019-03-12T08:13:24.069Z,997.89
2019-03-12T08:14:26.775Z,997.87
2019-03-12T08:15:24.050Z,997.80
2019-03-12T08:16:24.063Z,997.79
2019-03-12T08:17:24.028Z,997.81
2019-03-12T08:18:24.012Z,997.88
2019-03-12T08:19:24.001Z,997.80
2019-03-12T08:20:24.006Z,997.79
2019-03-12T08:21:23.984Z,997.77
2019-03-12T08:22:23.967Z,997.78
2019-03-12T08:23:23.957Z,997.77
2019-03-12T08:24:23.947Z,997.71
2019-03-12T08:25:23.933Z,997.66
2019-03-12T08:26:23.940Z,997.59
2019-03-12T08:27:26.054Z,997.59
2019-03-12T08:28:23.916Z,997.56
2019-03-12T08:29:23.889Z,997.57
2019-03-12T08:30:23.882Z,997.56
2019-03-12T08:31:23.864Z,997.55
2019-03-12T08:32:24.103Z,997.57
2019-03-12T08:33:23.843Z,997.53
2019-03-12T08:34:23.834Z,997.43
2019-03-12T08:35:23.823Z,997.37
2019-03-12T08:36:23.819Z,997.34
2019-03-12T08:37:23.811Z,997.32
2019-03-12T08:38:23.807Z,997.34
2019-03-12T08:39:23.792Z,997.31
2019-03-12T08:40:23.766Z,997.36
2019-03-12T08:41:23.763Z,997.38
2019-03-12T08:42:23.744Z,997.36
2019-03-12T08:43:23.731Z,997.29
2019-03-12T08:44:26.272Z,997.27
2019-03-12T08:45:23.707Z,997.30
2019-03-12T08:46:23.701Z,997.24
2019-03-12T08:47:23.688Z,997.17
2019-03-12T08:48:23.672Z,997.16
2019-03-12T08:49:23.665Z,997.18
2019-03-12T08:50:23.724Z,997.16
2019-03-12T08:51:23.637Z,997.19
2019-03-12T08:52:23.628Z,997.17
2019-03-12T08:53:23.612Z,997.19
2019-03-12T08:54:23.603Z,997.17
2019-03-12T08:55:23.588Z,997.06
2019-03-12T08:56:23.593Z,997.07
2019-03-12T08:57:23.564Z,997.04
2019-03-12T08:58:23.593Z,997.00
2019-03-12T08:59:23.549Z,996.94
2019-03-12T09:00:24.248Z,996.91
2019-03-12T09:01:23.519Z,996.93
2019-03-12T09:02:23.526Z,996.93
2019-03-12T09:03:23.498Z,996.85
2019-03-12T09:04:23.481Z,996.92
2019-03-12T09:05:23.467Z,996.97
2019-03-12T09:06:23.459Z,996.96
2019-03-12T09:07:23.636Z,996.98
2019-03-12T09:08:23.468Z,997.00
2019-03-12T09:09:23.446Z,997.10
2019-03-12T09:10:23.410Z,997.08
2019-03-12T09:11:23.395Z,997.02
2019-03-12T09:12:23.381Z,997.05
2019-03-12T09:13:23.368Z,996.97
2019-03-12T09:14:23.374Z,996.94
2019-03-12T09:15:23.346Z,996.99
2019-03-12T09:16:23.337Z,996.99
2019-03-12T09:17:23.321Z,996.95
2019-03-12T09:18:23.308Z,996.98
2019-03-12T09:19:23.301Z,997.03
2019-03-12T09:20:23.306Z,996.87
2019-03-12T09:21:23.281Z,997.01
2019-03-12T09:22:23.260Z,996.99
2019-03-12T09:23:23.249Z,996.94
2019-03-12T09:24:23.239Z,996.94
2019-03-12T09:25:23.226Z,996.78
2019-03-12T09:26:23.230Z,996.67
2019-03-12T09:27:23.202Z,996.64
2019-03-12T09:28:23.192Z,996.68
2019-03-12T09:29:23.184Z,996.71
2019-03-12T09:30:23.167Z,996.65
2019-03-12T09:31:23.155Z,996.58
2019-03-12T09:32:23.162Z,996.59
2019-03-12T09:33:23.132Z,996.62
2019-03-12T09:34:23.132Z,996.63
2019-03-12T09:35:23.112Z,996.67
2019-03-12T09:36:23.100Z,996.59
2019-03-12T09:37:23.088Z,996.62
2019-03-12T09:38:23.172Z,996.58
2019-03-12T09:39:23.068Z,996.57
2019-03-12T09:40:23.058Z,996.67
2019-03-12T09:41:23.044Z,996.56
2019-03-12T09:42:23.034Z,996.49
2019-03-12T09:43:23.041Z,996.47
2019-03-12T09:44:23.034Z,996.49
2019-03-12T09:45:23.000Z,996.47
2019-03-12T09:46:22.986Z,996.39
2019-03-12T09:47:22.977Z,996.46
2019-03-12T09:48:22.992Z,996.41
2019-03-12T09:49:22.968Z,996.40
2019-03-12T09:50:22.958Z,996.37
2019-03-12T09:51:22.993Z,996.34
2019-03-12T09:52:22.924Z,996.33
2019-03-12T09:53:22.912Z,996.27
2019-03-12T09:54:22.930Z,996.28
2019-03-12T09:55:22.884Z,996.23
2019-03-12T09:56:22.893Z,996.09
2019-03-12T09:57:22.889Z,995.98
2019-03-12T09:58:22.854Z,995.90
2019-03-12T09:59:22.839Z,995.93
2019-03-12T10:00:22.828Z,995.86
2019-03-12T10:01:22.820Z,995.94
2019-03-12T10:02:22.823Z,996.10
2019-03-12T10:03:22.794Z,996.04
2019-03-12T10:04:22.865Z,996.01
2019-03-12T10:05:22.772Z,995.89
2019-03-12T10:06:22.763Z,995.80
2019-03-12T10:07:22.753Z,995.69
2019-03-12T10:08:22.761Z,995.68
2019-03-12T10:09:22.730Z,995.58
2019-03-12T10:10:22.720Z,995.61
2019-03-12T10:11:22.706Z,995.56
2019-03-12T10:12:22.696Z,995.53
2019-03-12T10:13:22.685Z,995.51
2019-03-12T10:14:22.696Z,995.47
2019-03-12T10:15:22.678Z,995.39
2019-03-12T10:16:22.645Z,995.38
2019-03-12T10:17:22.636Z,995.39
2019-03-12T10:18:22.624Z,995.39
2019-03-12T10:19:22.612Z,995.37
2019-03-12T10:20:22.628Z,995.30
2019-03-12T10:21:22.593Z,995.21
2019-03-12T10:22:22.591Z,995.22
2019-03-12T10:23:22.577Z,995.25
2019-03-12T10:24:22.556Z,995.18
2019-03-12T10:25:22.544Z,995.14
2019-03-12T10:26:22.552Z,995.17
2019-03-12T10:27:22.540Z,995.11
2019-03-12T10:28:22.513Z,995.18
2019-03-12T10:29:22.500Z,995.09
2019-03-12T10:30:22.487Z,995.16
2019-03-12T10:31:22.477Z,995.03
2019-03-12T10:32:22.489Z,995.01
2019-03-12T10:33:22.454Z,995.04
2019-03-12T10:34:29.511Z,995.07
2019-03-12T10:35:23.431Z,995.05
2019-03-12T10:36:22.649Z,995.07
2019-03-12T10:37:22.409Z,994.94
2019-03-12T10:38:22.416Z,994.92
2019-03-12T10:39:22.385Z,994.85
2019-03-12T10:40:22.376Z,994.80
2019-03-12T10:41:22.365Z,994.82
2019-03-12T10:42:22.352Z,994.80
2019-03-12T10:43:22.342Z,994.83
2019-03-12T10:44:22.347Z,994.74
2019-03-12T10:45:22.338Z,994.68
2019-03-12T10:46:22.306Z,994.67
2019-03-12T10:47:22.300Z,994.71
2019-03-12T10:48:22.283Z,994.64
2019-03-12T10:49:22.272Z,994.62
2019-03-12T10:50:22.280Z,994.64
2019-03-12T10:51:22.251Z,994.63
2019-03-12T10:52:22.249Z,994.54
2019-03-12T10:53:22.226Z,994.57
2019-03-12T10:54:22.217Z,994.55
2019-03-12T10:55:22.204Z,994.55
2019-03-12T10:56:22.206Z,994.56
2019-03-12T10:57:22.181Z,994.51
2019-03-12T10:58:22.172Z,994.51
2019-03-12T10:59:22.157Z,994.51
2019-03-12T11:00:22.151Z,994.48
2019-03-12T11:01:22.133Z,994.44
2019-03-12T11:02:22.137Z,994.45
2019-03-12T11:03:22.113Z,994.51
2019-03-12T11:04:22.112Z,994.40
2019-03-12T11:05:22.090Z,994.31
2019-03-12T11:06:22.081Z,994.29
2019-03-12T11:07:22.067Z,994.25
2019-03-12T11:08:22.071Z,994.20
2019-03-12T11:09:22.047Z,994.18
2019-03-12T11:10:22.032Z,994.29
2019-03-12T11:11:22.042Z,994.26
2019-03-12T11:12:22.013Z,994.14
2019-03-12T11:13:22.002Z,994.20
2019-03-12T11:14:22.015Z,994.08
2019-03-12T11:15:21.978Z,994.04
2019-03-12T11:16:21.964Z,993.88
2019-03-12T11:17:21.957Z,993.98
2019-03-12T11:18:21.953Z,993.92
2019-03-12T11:19:21.948Z,993.97
2019-03-12T11:20:21.934Z,993.97
2019-03-12T11:21:21.910Z,993.82
2019-03-12T11:22:21.900Z,993.80
2019-03-12T11:23:21.886Z,993.84
2019-03-12T11:24:21.876Z,993.73
2019-03-12T11:25:27.150Z,993.86
2019-03-12T11:26:22.865Z,993.76
2019-03-12T11:27:21.839Z,993.70
2019-03-12T11:28:21.827Z,993.70
2019-03-12T11:29:21.816Z,993.71
2019-03-12T11:30:21.825Z,993.68
2019-03-12T11:31:21.791Z,993.66
2019-03-12T11:32:21.828Z,993.66
2019-03-12T11:33:21.773Z,993.65
2019-03-12T11:34:21.759Z,993.66
2019-03-12T11:35:21.770Z,993.61
2019-03-12T11:36:21.741Z,993.54
2019-03-12T11:37:21.733Z,993.48
2019-03-12T11:38:21.731Z,993.47
2019-03-12T11:39:21.712Z,993.48
2019-03-12T11:40:21.747Z,993.48
2019-03-12T11:41:21.682Z,993.22
2019-03-12T11:42:21.667Z,993.38
2019-03-12T11:43:21.652Z,993.31
2019-03-12T11:44:21.689Z,993.34
2019-03-12T11:45:34.928Z,993.32
2019-03-12T11:46:22.617Z,993.44
2019-03-12T11:47:21.611Z,993.33
2019-03-12T11:48:21.594Z,993.31
2019-03-12T11:49:21.688Z,993.24
2019-03-12T11:50:21.908Z,993.24
2019-03-12T11:51:21.562Z,993.21
2019-03-12T11:52:21.547Z,993.31
2019-03-12T11:53:21.545Z,993.25
2019-03-12T11:54:21.531Z,993.22
2019-03-12T11:55:21.519Z,993.14
2019-03-12T11:56:21.537Z,993.16
2019-03-12T11:57:21.490Z,993.12
2019-03-12T11:58:21.495Z,993.08
2019-03-12T11:59:21.481Z,993.05
2019-03-12T12:00:21.481Z,993.05
2019-03-12T12:01:21.470Z,993.04
2019-03-12T12:02:21.454Z,993.02
2019-03-12T12:03:21.435Z,992.99
2019-03-12T12:04:21.408Z,993.03
2019-03-12T12:05:21.396Z,992.98
2019-03-12T12:06:21.404Z,992.87
2019-03-12T12:07:21.386Z,992.90
2019-03-12T12:08:21.399Z,992.88
2019-03-12T12:09:21.353Z,992.81
2019-03-12T12:10:21.338Z,992.82
2019-03-12T12:11:21.332Z,992.74
2019-03-12T12:12:21.316Z,992.76
2019-03-12T12:13:21.311Z,992.72
2019-03-12T12:14:21.306Z,992.66
2019-03-12T12:15:21.284Z,992.59
2019-03-12T12:16:21.286Z,992.57
2019-03-12T12:17:21.260Z,992.53
2019-03-12T12:18:21.260Z,992.45